createdAt,value
2018-05-21T07:14:09.170Z,38.90
2018-05-21T07:16:35.361Z,39.02
2018-05-21T07:19:01.622Z,39.88
2018-05-21T07:21:27.873Z,39.70
2018-05-21T07:23:54.116Z,40.19
2018-05-21T07:26:20.369Z,40.74
2018-05-21T07:28:47.367Z,40.50
2018-05-21T07:31:13.545Z,40.21
2018-05-21T07:33:42.050Z,40.28
2018-05-21T07:36:08.370Z,39.13
2018-05-21T07:38:34.633Z,40.32
2018-05-21T07:41:01.621Z,40.41
2018-05-21T07:43:27.873Z,40.18
2018-05-21T07:45:54.106Z,40.19
2018-05-21T07:48:20.337Z,39.47
2018-05-21T07:50:46.577Z,39.92
2018-05-21T07:53:12.798Z,39.14
2018-05-21T07:55:39.078Z,38.55
2018-05-21T07:58:05.333Z,38.90
2018-05-21T08:00:32.349Z,38.12
2018-05-21T08:02:58.566Z,38.02
2018-05-21T08:05:24.919Z,37.83
2018-05-21T08:07:51.067Z,37.70
2018-05-21T08:10:17.295Z,38.38
2018-05-21T08:12:43.502Z,37.21
2018-05-21T08:15:09.745Z,37.50
2018-05-21T08:17:35.990Z,36.78
2018-05-21T08:20:02.268Z,36.83
2018-05-21T08:22:28.531Z,37.23
2018-05-21T08:24:57.221Z,36.62
2018-05-21T08:27:30.154Z,37.45
2018-05-21T08:29:57.379Z,37.35
2018-05-21T08:32:23.660Z,37.77
2018-05-21T08:34:50.003Z,37.03
2018-05-21T08:37:16.267Z,37.30
2018-05-21T08:39:42.502Z,37.00
2018-05-21T08:42:08.757Z,36.79
2018-05-21T08:44:34.977Z,36.73
2018-05-21T08:47:01.268Z,36.47
2018-05-21T08:49:28.308Z,36.89
2018-05-21T08:51:54.581Z,36.04
2018-05-21T08:54:20.841Z,35.34
2018-05-21T08:56:47.052Z,35.89
2018-05-21T08:59:13.306Z,35.73
2018-05-21T09:01:39.569Z,36.09
2018-05-21T09:04:05.782Z,35.86
2018-05-21T09:06:32.078Z,35.62
2018-05-21T09:08:59.055Z,35.28
2018-05-21T09:11:25.305Z,35.38
2018-05-21T09:13:51.550Z,35.62
2018-05-21T09:16:17.829Z,35.88
2018-05-21T09:18:44.781Z,35.01
2018-05-21T09:21:11.764Z,35.03
2018-05-21T09:23:37.973Z,34.98
2018-05-21T09:26:04.982Z,34.96
2018-05-21T09:28:31.241Z,34.31
2018-05-21T09:30:57.458Z,34.47
2018-05-21T09:33:23.764Z,35.25
2018-05-21T09:35:49.978Z,35.24
2018-05-21T09:38:16.190Z,34.80
2018-05-21T09:40:42.436Z,34.58
2018-05-21T09:43:09.416Z,34.37
2018-05-21T09:45:35.703Z,33.23
2018-05-21T09:48:05.366Z,32.96
2018-05-21T09:50:31.805Z,31.57
2018-05-21T09:53:00.017Z,30.34
2018-05-21T09:55:26.228Z,30.31
2018-05-21T09:57:52.561Z,29.82
2018-05-21T10:00:18.891Z,29.16
2018-05-21T10:02:45.130Z,28.16
2018-05-21T10:05:11.395Z,27.95
2018-05-21T10:07:37.662Z,26.27
2018-05-21T10:10:04.650Z,25.86
2018-05-21T10:12:30.909Z,26.03
2018-05-21T10:14:57.205Z,25.37
2018-05-21T10:17:23.434Z,24.04
2018-05-21T10:19:50.409Z,23.90
2018-05-21T10:22:16.656Z,22.67
2018-05-21T10:24:42.900Z,22.79
2018-05-21T10:27:09.137Z,21.51
2018-05-21T10:29:35.373Z,21.22
2018-05-21T10:32:01.737Z,20.39
2018-05-21T10:34:28.623Z,19.82
2018-05-21T10:36:54.853Z,20.29
2018-05-21T10:39:21.106Z,19.45
2018-05-21T10:41:47.323Z,18.45
2018-05-21T10:44:13.742Z,19.15
2018-05-21T10:46:40.704Z,19.14
2018-05-21T10:49:06.921Z,19.17
2018-05-21T10:51:33.934Z,18.63
2018-05-21T10:54:00.190Z,17.76
2018-05-21T10:56:26.400Z,17.99
2018-05-21T10:58:52.673Z,17.59
2018-05-21T11:01:18.895Z,16.99
2018-05-21T11:03:45.138Z,16.77
2018-05-21T11:06:11.401Z,17.10
2018-05-21T11:08:37.595Z,16.95
2018-05-21T11:11:03.791Z,15.87
2018-05-21T11:13:30.024Z,16.34
2018-05-21T11:15:56.300Z,16.68
2018-05-21T11:18:22.553Z,15.49
2018-05-21T11:20:48.799Z,16.18
2018-05-21T11:23:15.796Z,16.09
2018-05-21T11:25:42.015Z,15.98
2018-05-21T11:28:08.236Z,16.05
2018-05-21T11:30:35.190Z,15.53
2018-05-21T11:33:01.469Z,15.32
2018-05-21T11:35:27.725Z,15.46
2018-05-21T11:37:53.923Z,16.23
2018-05-21T11:40:20.149Z,14.75
2018-05-21T11:42:46.411Z,16.15
2018-05-21T11:45:12.736Z,15.46
2018-05-21T11:47:38.976Z,15.66
2018-05-21T11:50:05.241Z,16.10
2018-05-21T11:52:31.502Z,15.39
2018-05-21T11:54:58.498Z,14.94
2018-05-21T11:57:24.741Z,15.34
2018-05-21T11:59:50.997Z,16.12
2018-05-21T12:02:17.228Z,16.09
2018-05-21T12:04:43.526Z,16.21
2018-05-21T12:07:09.813Z,16.35
2018-05-21T12:09:36.031Z,16.44
2018-05-21T12:12:02.245Z,16.71
2018-05-21T12:14:28.440Z,17.21
2018-05-21T12:16:54.669Z,17.04
2018-05-21T12:19:20.921Z,16.72
2018-05-21T12:21:47.139Z,16.47
2018-05-21T12:24:14.074Z,16.31
2018-05-21T12:26:41.021Z,17.19
2018-05-21T12:29:08.011Z,17.67
2018-05-21T12:31:34.241Z,16.81
2018-05-21T12:34:00.494Z,17.70
2018-05-21T12:36:26.762Z,16.87
2018-05-21T12:38:54.488Z,17.92
2018-05-21T12:41:20.717Z,18.34
2018-05-21T12:43:46.941Z,17.78
2018-05-21T12:46:13.189Z,18.16
2018-05-21T12:48:39.438Z,18.73
2018-05-21T12:51:05.661Z,18.74
2018-05-21T12:53:31.898Z,18.35
2018-05-21T12:55:58.141Z,18.51
2018-05-21T12:58:24.384Z,18.86
2018-05-21T13:00:50.666Z,19.20
2018-05-21T13:03:17.609Z,18.76
2018-05-21T13:05:43.861Z,19.01
2018-05-21T13:08:10.858Z,19.70
2018-05-21T13:10:37.102Z,19.32
2018-05-21T13:13:03.313Z,19.74
2018-05-21T13:15:31.450Z,20.58
2018-05-21T13:17:58.457Z,20.39
2018-05-21T13:20:24.701Z,20.65
2018-05-21T13:22:50.955Z,20.83
2018-05-21T13:25:17.186Z,20.80
2018-05-21T13:27:43.440Z,20.37
2018-05-21T13:30:10.429Z,20.78
2018-05-21T13:32:36.659Z,21.80
2018-05-21T13:35:02.912Z,22.35
2018-05-21T13:37:29.136Z,21.42
2018-05-21T13:39:55.362Z,21.17
2018-05-21T13:42:21.613Z,21.31
2018-05-21T13:44:47.856Z,22.51
2018-05-21T13:47:14.096Z,22.18
2018-05-21T13:49:40.326Z,22.55
2018-05-21T13:52:06.590Z,23.11
2018-05-21T13:54:35.170Z,23.76
2018-05-21T13:57:01.405Z,23.43
2018-05-21T13:59:27.669Z,22.29
2018-05-21T14:01:54.870Z,22.87
2018-05-21T14:04:21.247Z,23.59
2018-05-21T14:06:47.502Z,23.13
2018-05-21T14:09:14.744Z,22.86
2018-05-21T14:11:41.541Z,22.95
2018-05-21T14:14:08.641Z,23.77
2018-05-21T14:16:34.953Z,23.26
2018-05-21T14:19:01.250Z,23.77
2018-05-21T14:21:27.477Z,23.86
2018-05-21T14:23:54.426Z,24.43
2018-05-21T14:26:20.634Z,23.69
2018-05-21T14:28:46.873Z,24.93
2018-05-21T14:31:16.619Z,23.90
2018-05-21T14:33:42.884Z,24.02
2018-05-21T14:36:09.153Z,23.93
2018-05-21T14:38:35.725Z,24.43
2018-05-21T14:41:01.953Z,24.16
2018-05-21T14:43:28.635Z,23.83
2018-05-21T14:45:54.909Z,23.88
2018-05-21T14:48:21.219Z,25.10
2018-05-21T14:50:47.573Z,24.33
2018-05-21T14:53:13.909Z,24.82
2018-05-21T14:55:40.174Z,24.73
2018-05-21T14:58:07.464Z,25.36
2018-05-21T15:00:33.721Z,25.46
2018-05-21T15:02:59.957Z,25.11
2018-05-21T15:05:26.199Z,25.01
2018-05-21T15:07:52.938Z,24.91
2018-05-21T15:10:19.978Z,24.97
2018-05-21T15:12:46.176Z,25.71
2018-05-21T15:15:13.166Z,25.90
2018-05-21T15:17:39.390Z,25.81
2018-05-21T15:20:05.634Z,25.88
2018-05-21T15:22:31.901Z,25.05
2018-05-21T15:24:58.193Z,25.99
2018-05-21T15:27:24.449Z,25.18
2018-05-21T15:29:50.676Z,25.76
2018-05-21T15:32:16.911Z,26.20
2018-05-21T15:34:43.180Z,26.92
2018-05-21T15:37:10.181Z,26.13
2018-05-21T15:39:36.449Z,26.62
2018-05-21T15:42:02.726Z,25.72
2018-05-21T15:44:29.734Z,25.71
2018-05-21T15:46:56.257Z,26.60
2018-05-21T15:49:25.079Z,25.92
2018-05-21T15:51:51.354Z,26.04
2018-05-21T15:54:17.554Z,26.16
2018-05-21T15:56:43.805Z,25.68
2018-05-21T15:59:09.998Z,26.79
2018-05-21T16:01:36.260Z,26.57
2018-05-21T16:04:02.498Z,26.25
2018-05-21T16:06:29.024Z,26.51
2018-05-21T16:08:55.291Z,25.90
2018-05-21T16:11:22.238Z,26.82
2018-05-21T16:13:49.200Z,26.24
2018-05-21T16:16:15.405Z,26.79
2018-05-21T16:18:41.678Z,26.90
2018-05-21T16:21:07.929Z,27.26
2018-05-21T16:23:34.162Z,26.49
2018-05-21T16:26:00.417Z,26.58
2018-05-21T16:28:26.641Z,26.85
2018-05-21T16:30:53.643Z,27.48
2018-05-21T16:33:20.601Z,27.80
2018-05-21T16:35:47.709Z,27.65
2018-05-21T16:38:13.933Z,27.75
2018-05-21T16:40:40.226Z,27.03
2018-05-21T16:43:07.304Z,27.51
2018-05-21T16:45:34.255Z,27.69
2018-05-21T16:48:00.482Z,27.99
2018-05-21T16:50:26.732Z,27.87
2018-05-21T16:52:53.019Z,27.83
2018-05-21T16:55:19.278Z,27.91
2018-05-21T16:57:46.243Z,27.76
2018-05-21T17:00:12.589Z,28.48
2018-05-21T17:02:38.760Z,28.75
2018-05-21T17:05:04.967Z,28.97
2018-05-21T17:07:31.230Z,28.80
2018-05-21T17:09:57.547Z,28.88
2018-05-21T17:12:23.850Z,29.31
2018-05-21T17:14:50.102Z,29.49
2018-05-21T17:17:16.356Z,29.72
2018-05-21T17:19:42.610Z,29.70
2018-05-21T17:22:08.810Z,29.31
2018-05-21T17:24:35.091Z,29.29
2018-05-21T17:27:01.317Z,29.12
2018-05-21T17:29:28.355Z,28.93
2018-05-21T17:31:54.600Z,29.48
2018-05-21T17:34:20.827Z,29.09
2018-05-21T17:36:47.038Z,29.15
2018-05-21T17:39:13.289Z,29.30
2018-05-21T17:41:39.565Z,29.49
2018-05-21T17:44:06.572Z,30.05
2018-05-21T17:46:33.463Z,30.26
2018-05-21T17:48:59.713Z,30.41
2018-05-21T17:51:26.693Z,30.57
2018-05-21T17:53:52.924Z,30.94
2018-05-21T17:56:19.133Z,30.43
2018-05-21T17:58:46.096Z,30.99
2018-05-21T18:01:12.350Z,31.11
2018-05-21T18:03:38.581Z,31.22
2018-05-21T18:06:04.866Z,31.22
2018-05-21T18:08:31.073Z,31.40
2018-05-21T18:10:57.282Z,31.53
2018-05-21T18:13:23.534Z,31.79
2018-05-21T18:15:49.868Z,31.97
2018-05-21T18:18:16.134Z,31.71
2018-05-21T18:20:42.398Z,32.12
2018-05-21T18:23:08.670Z,31.04
2018-05-21T18:25:34.895Z,32.31
2018-05-21T18:28:01.103Z,32.34
2018-05-21T18:30:28.097Z,32.55
2018-05-21T18:32:54.361Z,32.58
2018-05-21T18:35:20.584Z,32.94
2018-05-21T18:37:46.829Z,33.11
2018-05-21T18:40:13.058Z,33.87
2018-05-21T18:42:39.344Z,33.86
2018-05-21T18:45:06.962Z,34.59
2018-05-21T18:47:33.235Z,34.67
2018-05-21T18:50:00.233Z,34.91
2018-05-21T18:52:32.091Z,35.10
2018-05-21T18:54:58.591Z,35.26
2018-05-21T18:57:25.521Z,35.20
2018-05-21T18:59:54.253Z,35.84
2018-05-21T19:02:20.491Z,36.25
2018-05-21T19:04:46.747Z,36.42
2018-05-21T19:07:12.983Z,36.95
2018-05-21T19:09:39.260Z,36.70
2018-05-21T19:12:05.513Z,37.87
2018-05-21T19:14:32.468Z,37.22
2018-05-21T19:16:58.715Z,37.14
2018-05-21T19:19:25.053Z,37.33
2018-05-21T19:21:51.407Z,38.66
2018-05-21T19:24:17.637Z,38.90
2018-05-21T19:26:43.997Z,39.98
2018-05-21T19:29:10.329Z,39.61
2018-05-21T19:31:36.690Z,40.39
2018-05-21T19:34:03.281Z,40.31
2018-05-21T19:36:29.522Z,40.52
2018-05-21T19:38:55.837Z,40.40
2018-05-21T19:41:22.340Z,40.69
2018-05-21T19:43:48.708Z,41.28
2018-05-21T19:46:15.931Z,41.83
2018-05-21T19:48:42.163Z,41.69
2018-05-21T19:51:08.457Z,42.77
2018-05-21T19:53:34.706Z,41.90
2018-05-21T19:56:00.949Z,42.78
2018-05-21T19:58:27.216Z,42.98
2018-05-21T20:00:53.774Z,42.96
2018-05-21T20:03:21.559Z,42.28
2018-05-21T20:05:47.800Z,43.19
2018-05-21T20:08:14.061Z,44.96
2018-05-21T20:10:40.536Z,44.58
2018-05-21T20:13:06.809Z,43.62
2018-05-21T20:15:33.025Z,44.22
2018-05-21T20:18:00.487Z,43.12
2018-05-21T20:20:41.225Z,44.29
2018-05-21T20:23:07.480Z,44.55
2018-05-21T20:25:33.706Z,44.26
2018-05-21T20:27:59.976Z,44.96
2018-05-21T20:30:26.969Z,44.86
2018-05-21T20:32:53.270Z,44.92
2018-05-21T20:35:23.966Z,44.70
2018-05-21T20:37:50.350Z,45.08
2018-05-21T20:40:17.435Z,46.62
2018-05-21T20:42:43.743Z,45.58
2018-05-21T20:45:10.010Z,46.34
2018-05-21T20:47:36.613Z,46.14
2018-05-21T20:50:02.824Z,45.56
2018-05-21T20:52:30.566Z,45.71
2018-05-21T20:54:57.865Z,46.68
2018-05-21T20:57:30.410Z,46.05
2018-05-21T21:00:00.711Z,46.10
2018-05-21T21:02:27.467Z,47.06
2018-05-21T21:04:53.804Z,47.27
2018-05-21T21:07:20.021Z,47.43
2018-05-21T21:09:46.250Z,46.36
2018-05-21T21:12:12.481Z,47.53
2018-05-21T21:14:38.762Z,47.41
2018-05-21T21:17:05.039Z,48.27
2018-05-21T21:19:31.301Z,48.32
2018-05-21T21:21:57.585Z,48.42
2018-05-21T21:24:24.578Z,47.33
2018-05-21T21:26:50.837Z,46.59
2018-05-21T21:29:17.037Z,47.28
2018-05-21T21:31:43.297Z,48.62
2018-05-21T21:34:09.509Z,48.52
2018-05-21T21:36:35.744Z,48.27
2018-05-21T21:39:02.055Z,47.87
2018-05-21T21:41:29.864Z,48.64
2018-05-21T21:43:56.989Z,50.25
2018-05-21T21:46:27.785Z,48.31
2018-05-21T21:48:54.110Z,48.50
2018-05-21T21:51:22.313Z,49.24
2018-05-21T21:53:55.454Z,49.62
2018-05-21T21:56:22.244Z,49.80
2018-05-21T21:58:52.099Z,49.32
2018-05-21T22:01:21.948Z,49.34
2018-05-21T22:03:48.221Z,50.67
2018-05-21T22:06:18.665Z,49.06
2018-05-21T22:08:45.743Z,50.40
2018-05-21T22:11:12.001Z,51.29
2018-05-21T22:13:38.195Z,50.93
2018-05-21T22:16:05.166Z,52.22
2018-05-21T22:18:31.413Z,50.22
2018-05-21T22:20:57.653Z,51.01
2018-05-21T22:23:23.882Z,51.81
2018-05-21T22:25:50.125Z,51.40
2018-05-21T22:28:16.386Z,51.18
2018-05-21T22:30:43.367Z,51.82
2018-05-21T22:33:10.328Z,51.39
2018-05-21T22:35:37.282Z,51.50
2018-05-21T22:38:03.555Z,50.86
2018-05-21T22:40:29.789Z,50.81
2018-05-21T22:42:56.017Z,52.26
2018-05-21T22:45:22.255Z,52.16
2018-05-21T22:47:48.469Z,51.97
2018-05-21T22:50:14.674Z,52.41
2018-05-21T22:52:41.641Z,53.16
2018-05-21T22:55:07.854Z,52.02
2018-05-21T22:57:34.860Z,52.48
2018-05-21T23:00:01.098Z,53.82
2018-05-21T23:02:27.363Z,52.74
2018-05-21T23:04:55.077Z,52.78
2018-05-21T23:07:21.313Z,54.41
2018-05-21T23:09:50.643Z,53.76
2018-05-21T23:12:16.920Z,53.61
2018-05-21T23:14:43.885Z,54.84
2018-05-21T23:17:10.905Z,55.44
2018-05-21T23:19:37.129Z,55.17
2018-05-21T23:22:03.416Z,53.97
2018-05-21T23:24:29.668Z,54.26
2018-05-21T23:26:55.905Z,55.28
2018-05-21T23:29:22.130Z,53.51
2018-05-21T23:31:48.389Z,55.03
2018-05-21T23:34:14.633Z,53.74
2018-05-21T23:36:40.861Z,53.84
2018-05-21T23:39:07.077Z,55.44
2018-05-21T23:41:33.313Z,55.08
2018-05-21T23:43:59.542Z,54.13
2018-05-21T23:46:25.745Z,54.98
2018-05-21T23:48:51.992Z,55.28
2018-05-21T23:51:19.006Z,53.89
2018-05-21T23:53:45.237Z,54.25
2018-05-21T23:56:11.486Z,53.41
2018-05-21T23:58:37.743Z,55.95
